sensor_id;sensor_type;location;lat;lon;timestamp;temperature;humidity
12604;DHT22;6367;52.508;13.284;2022-09-13T00:00:41;18.70;99.90
12604;DHT22;6367;52.508;13.284;2022-09-13T00:03:08;18.60;99.90
12604;DHT22;6367;52.508;13.284;2022-09-13T00:05:35;19.20;99.90
12604;DHT22;6367;52.508;13.284;2022-09-13T00:08:01;18.60;99.90
12604;DHT22;6367;52.508;13.284;2022-09-13T00:10:27;18.60;99.90
12604;DHT22;6367;52.508;13.284;2022-09-13T00:12:53;18.70;99.90
12604;DHT22;6367;52.508;13.284;2022-09-13T00:15:20;18.70;99.90
12604;DHT22;6367;52.508;13.284;2022-09-13T00:17:46;18.60;99.90
12604;DHT22;6367;52.508;13.284;2022-09-13T00:20:12;18.70;99.90
12604;DHT22;6367;52.508;13.284;2022-09-13T00:22:38;18.70;99.90
12604;DHT22;6367;52.508;13.284;2022-09-13T00:25:05;18.60;99.90
12604;DHT22;6367;52.508;13.284;2022-09-13T00:27:35;18.60;99.90
12604;DHT22;6367;52.508;13.284;2022-09-13T00:30:01;18.60;99.90
12604;DHT22;6367;52.508;13.284;2022-09-13T00:32:27;18.70;99.90
12604;DHT22;6367;52.508;13.284;2022-09-13T00:34:53;18.90;99.90
12604;DHT22;6367;52.508;13.284;2022-09-13T00:37:18;18.80;99.90
12604;DHT22;6367;52.508;13.284;2022-09-13T00:39:44;19.00;99.90
12604;DHT22;6367;52.508;13.284;2022-09-13T00:42:11;18.30;99.90
12604;DHT22;6367;52.508;13.284;2022-09-13T00:44:57;18.30;99.90
12604;DHT22;6367;52.508;13.284;2022-09-13T00:52:52;18.40;99.90
12604;DHT22;6367;52.508;13.284;2022-09-13T00:55:38;18.20;99.90
12604;DHT22;6367;52.508;13.284;2022-09-13T00:58:09;18.30;99.90
12604;DHT22;6367;52.508;13.284;2022-09-13T01:00:38;18.30;99.90
12604;DHT22;6367;52.508;13.284;2022-09-13T01:03:07;18.40;99.90
12604;DHT22;6367;52.508;13.284;2022-09-13T01:05:41;18.50;99.90
12604;DHT22;6367;52.508;13.284;2022-09-13T01:08:09;18.90;99.90
12604;DHT22;6367;52.508;13.284;2022-09-13T01:10:46;18.20;99.90
12604;DHT22;6367;52.508;13.284;2022-09-13T01:13:24;18.30;99.90
12604;DHT22;6367;52.508;13.284;2022-09-13T01:15:51;18.20;99.90
12604;DHT22;6367;52.508;13.284;2022-09-13T01:18:17;18.50;99.90
12604;DHT22;6367;52.508;13.284;2022-09-13T01:21:11;18.20;99.90
12604;DHT22;6367;52.508;13.284;2022-09-13T01:26:21;18.20;99.90
12604;DHT22;6367;52.508;13.284;2022-09-13T01:37:38;18.20;99.90
12604;DHT22;6367;52.508;13.284;2022-09-13T01:40:15;18.20;99.90
12604;DHT22;6367;52.508;13.284;2022-09-13T01:43:19;18.20;99.90
12604;DHT22;6367;52.508;13.284;2022-09-13T01:46:03;18.30;99.90
12604;DHT22;6367;52.508;13.284;2022-09-13T01:51:35;18.20;99.90
12604;DHT22;6367;52.508;13.284;2022-09-13T01:54:25;18.20;99.90
12604;DHT22;6367;52.508;13.284;2022-09-13T02:05:03;18.10;99.90
12604;DHT22;6367;52.508;13.284;2022-09-13T02:07:35;18.00;99.90
12604;DHT22;6367;52.508;13.284;2022-09-13T02:10:11;18.50;99.90
12604;DHT22;6367;52.508;13.284;2022-09-13T02:12:41;17.90;99.90
12604;DHT22;6367;52.508;13.284;2022-09-13T02:15:24;17.90;99.90
12604;DHT22;6367;52.508;13.284;2022-09-13T02:18:38;17.90;99.90
12604;DHT22;6367;52.508;13.284;2022-09-13T02:20:47;17.90;99.90
12604;DHT22;6367;52.508;13.284;2022-09-13T02:23:18;17.80;99.90
12604;DHT22;6367;52.508;13.284;2022-09-13T02:25:46;17.70;99.90
12604;DHT22;6367;52.508;13.284;2022-09-13T02:28:18;17.70;99.90
12604;DHT22;6367;52.508;13.284;2022-09-13T02:30:48;17.70;99.90
12604;DHT22;6367;52.508;13.284;2022-09-13T02:33:20;17.80;99.90
12604;DHT22;6367;52.508;13.284;2022-09-13T02:35:51;18.40;99.90
12604;DHT22;6367;52.508;13.284;2022-09-13T02:38:46;17.80;99.90
12604;DHT22;6367;52.508;13.284;2022-09-13T02:41:21;17.80;99.90
12604;DHT22;6367;52.508;13.284;2022-09-13T02:43:55;17.70;99.90
12604;DHT22;6367;52.508;13.284;2022-09-13T02:49:15;17.70;99.90
12604;DHT22;6367;52.508;13.284;2022-09-13T02:51:56;17.60;99.90
12604;DHT22;6367;52.508;13.284;2022-09-13T02:54:40;17.60;99.90
12604;DHT22;6367;52.508;13.284;2022-09-13T02:59:41;17.60;99.90
12604;DHT22;6367;52.508;13.284;2022-09-13T03:02:11;17.70;99.90
12604;DHT22;6367;52.508;13.284;2022-09-13T03:04:37;17.20;99.90
12604;DHT22;6367;52.508;13.284;2022-09-13T03:07:04;17.60;99.90
12604;DHT22;6367;52.508;13.284;2022-09-13T03:09:32;17.50;99.90
12604;DHT22;6367;52.508;13.284;2022-09-13T03:15:12;17.50;99.90
12604;DHT22;6367;52.508;13.284;2022-09-13T03:17:53;17.40;99.90
12604;DHT22;6367;52.508;13.284;2022-09-13T03:21:04;17.40;99.90
12604;DHT22;6367;52.508;13.284;2022-09-13T03:26:50;17.40;99.90
12604;DHT22;6367;52.508;13.284;2022-09-13T03:29:44;17.40;99.90
12604;DHT22;6367;52.508;13.284;2022-09-13T03:32:17;17.40;99.90
12604;DHT22;6367;52.508;13.284;2022-09-13T03:40:33;17.40;99.90
12604;DHT22;6367;52.508;13.284;2022-09-13T03:43:27;17.50;99.90
12604;DHT22;6367;52.508;13.284;2022-09-13T03:46:05;17.40;99.90
12604;DHT22;6367;52.508;13.284;2022-09-13T03:48:35;17.40;99.90
12604;DHT22;6367;52.508;13.284;2022-09-13T03:51:03;17.50;99.90
12604;DHT22;6367;52.508;13.284;2022-09-13T03:53:31;17.50;99.90
12604;DHT22;6367;52.508;13.284;2022-09-13T03:55:58;17.80;99.90
12604;DHT22;6367;52.508;13.284;2022-09-13T03:58:24;17.40;99.90
12604;DHT22;6367;52.508;13.284;2022-09-13T04:00:50;17.40;99.90
12604;DHT22;6367;52.508;13.284;2022-09-13T04:03:17;17.40;99.90
12604;DHT22;6367;52.508;13.284;2022-09-13T04:05:43;17.40;99.90
12604;DHT22;6367;52.508;13.284;2022-09-13T04:08:08;17.40;99.90
12604;DHT22;6367;52.508;13.284;2022-09-13T04:10:35;17.40;99.90
12604;DHT22;6367;52.508;13.284;2022-09-13T04:13:02;17.40;99.90
12604;DHT22;6367;52.508;13.284;2022-09-13T04:15:28;17.80;99.90
12604;DHT22;6367;52.508;13.284;2022-09-13T04:17:55;16.90;99.90
12604;DHT22;6367;52.508;13.284;2022-09-13T04:20:21;17.80;99.90
12604;DHT22;6367;52.508;13.284;2022-09-13T04:22:51;17.40;99.90
12604;DHT22;6367;52.508;13.284;2022-09-13T04:25:16;17.30;99.90
12604;DHT22;6367;52.508;13.284;2022-09-13T04:27:42;17.30;99.90
12604;DHT22;6367;52.508;13.284;2022-09-13T04:30:08;17.30;99.90
12604;DHT22;6367;52.508;13.284;2022-09-13T04:32:34;17.30;99.90
12604;DHT22;6367;52.508;13.284;2022-09-13T04:34:59;17.30;99.90
12604;DHT22;6367;52.508;13.284;2022-09-13T04:37:25;17.20;99.90
12604;DHT22;6367;52.508;13.284;2022-09-13T04:39:51;17.80;99.90
12604;DHT22;6367;52.508;13.284;2022-09-13T04:42:17;17.20;99.90
12604;DHT22;6367;52.508;13.284;2022-09-13T04:44:43;17.20;99.90
12604;DHT22;6367;52.508;13.284;2022-09-13T04:47:09;17.20;99.90
12604;DHT22;6367;52.508;13.284;2022-09-13T04:49:35;17.10;99.90
12604;DHT22;6367;52.508;13.284;2022-09-13T04:52:01;17.10;99.90
12604;DHT22;6367;52.508;13.284;2022-09-13T04:54:27;17.10;99.90
12604;DHT22;6367;52.508;13.284;2022-09-13T04:56:52;17.10;99.90
12604;DHT22;6367;52.508;13.284;2022-09-13T04:59:19;17.40;99.90
12604;DHT22;6367;52.508;13.284;2022-09-13T05:01:45;17.30;99.90
12604;DHT22;6367;52.508;13.284;2022-09-13T05:04:10;17.00;99.90
12604;DHT22;6367;52.508;13.284;2022-09-13T05:06:36;17.10;99.90
12604;DHT22;6367;52.508;13.284;2022-09-13T05:09:03;17.60;99.90
12604;DHT22;6367;52.508;13.284;2022-09-13T05:11:29;17.10;99.90
12604;DHT22;6367;52.508;13.284;2022-09-13T05:13:57;17.20;99.90
12604;DHT22;6367;52.508;13.284;2022-09-13T05:16:24;17.20;99.90
12604;DHT22;6367;52.508;13.284;2022-09-13T05:18:51;17.20;99.90
12604;DHT22;6367;52.508;13.284;2022-09-13T05:21:17;17.20;99.90
12604;DHT22;6367;52.508;13.284;2022-09-13T05:23:43;17.20;99.90
12604;DHT22;6367;52.508;13.284;2022-09-13T05:26:09;17.20;99.90
12604;DHT22;6367;52.508;13.284;2022-09-13T05:28:35;17.10;99.90
12604;DHT22;6367;52.508;13.284;2022-09-13T05:31:19;17.10;99.90
12604;DHT22;6367;52.508;13.284;2022-09-13T05:33:47;17.10;99.90
12604;DHT22;6367;52.508;13.284;2022-09-13T05:36:13;17.50;99.90
12604;DHT22;6367;52.508;13.284;2022-09-13T05:38:39;17.20;99.90
12604;DHT22;6367;52.508;13.284;2022-09-13T05:41:05;17.20;99.90
12604;DHT22;6367;52.508;13.284;2022-09-13T05:43:33;17.20;99.90
12604;DHT22;6367;52.508;13.284;2022-09-13T05:46:01;17.30;99.90
12604;DHT22;6367;52.508;13.284;2022-09-13T05:48:27;17.30;99.90
12604;DHT22;6367;52.508;13.284;2022-09-13T05:50:53;17.40;99.90
12604;DHT22;6367;52.508;13.284;2022-09-13T05:53:18;17.30;99.90
12604;DHT22;6367;52.508;13.284;2022-09-13T05:55:44;17.30;99.90
12604;DHT22;6367;52.508;13.284;2022-09-13T05:58:10;17.30;99.90
12604;DHT22;6367;52.508;13.284;2022-09-13T06:00:35;17.30;99.90
12604;DHT22;6367;52.508;13.284;2022-09-13T06:03:01;17.30;99.90
12604;DHT22;6367;52.508;13.284;2022-09-13T06:05:27;17.90;99.90
12604;DHT22;6367;52.508;13.284;2022-09-13T06:07:52;17.50;99.90
12604;DHT22;6367;52.508;13.284;2022-09-13T06:10:18;17.50;99.90
12604;DHT22;6367;52.508;13.284;2022-09-13T06:12:45;17.60;99.90
12604;DHT22;6367;52.508;13.284;2022-09-13T06:15:10;17.50;99.90
12604;DHT22;6367;52.508;13.284;2022-09-13T06:17:36;17.50;99.90
12604;DHT22;6367;52.508;13.284;2022-09-13T06:20:02;17.40;99.90
12604;DHT22;6367;52.508;13.284;2022-09-13T06:22:28;17.40;99.90
12604;DHT22;6367;52.508;13.284;2022-09-13T06:24:58;17.40;99.90
12604;DHT22;6367;52.508;13.284;2022-09-13T06:27:23;17.50;99.90
12604;DHT22;6367;52.508;13.284;2022-09-13T06:29:49;17.50;99.90
12604;DHT22;6367;52.508;13.284;2022-09-13T06:32:15;17.50;99.90
12604;DHT22;6367;52.508;13.284;2022-09-13T06:34:40;17.50;99.90
12604;DHT22;6367;52.508;13.284;2022-09-13T06:37:06;17.60;99.90
12604;DHT22;6367;52.508;13.284;2022-09-13T06:39:32;17.50;99.90
12604;DHT22;6367;52.508;13.284;2022-09-13T06:41:58;17.50;99.90
12604;DHT22;6367;52.508;13.284;2022-09-13T06:44:24;17.60;99.90
12604;DHT22;6367;52.508;13.284;2022-09-13T06:46:50;18.20;99.90
12604;DHT22;6367;52.508;13.284;2022-09-13T06:49:15;17.60;99.90
12604;DHT22;6367;52.508;13.284;2022-09-13T06:51:41;17.60;99.90
12604;DHT22;6367;52.508;13.284;2022-09-13T06:54:06;17.60;99.90
12604;DHT22;6367;52.508;13.284;2022-09-13T06:56:37;17.60;99.90
12604;DHT22;6367;52.508;13.284;2022-09-13T06:59:05;17.60;99.90
12604;DHT22;6367;52.508;13.284;2022-09-13T07:01:34;17.70;99.90
12604;DHT22;6367;52.508;13.284;2022-09-13T07:04:06;17.60;99.90
12604;DHT22;6367;52.508;13.284;2022-09-13T07:06:33;18.00;99.90
12604;DHT22;6367;52.508;13.284;2022-09-13T07:09:01;17.80;99.90
12604;DHT22;6367;52.508;13.284;2022-09-13T07:11:32;17.70;99.90
12604;DHT22;6367;52.508;13.284;2022-09-13T07:13:58;17.60;99.90
12604;DHT22;6367;52.508;13.284;2022-09-13T07:16:27;17.70;99.90
12604;DHT22;6367;52.508;13.284;2022-09-13T07:18:57;17.70;99.90
12604;DHT22;6367;52.508;13.284;2022-09-13T07:21:24;17.80;99.90
12604;DHT22;6367;52.508;13.284;2022-09-13T07:23:51;18.20;99.90
12604;DHT22;6367;52.508;13.284;2022-09-13T07:26:17;17.80;99.90
12604;DHT22;6367;52.508;13.284;2022-09-13T07:28:45;17.90;99.90
12604;DHT22;6367;52.508;13.284;2022-09-13T07:31:23;17.80;99.90
12604;DHT22;6367;52.508;13.284;2022-09-13T07:33:57;17.80;99.90
12604;DHT22;6367;52.508;13.284;2022-09-13T07:36:24;18.10;99.90
12604;DHT22;6367;52.508;13.284;2022-09-13T07:38:50;18.20;99.90
12604;DHT22;6367;52.508;13.284;2022-09-13T07:41:18;18.00;99.90
12604;DHT22;6367;52.508;13.284;2022-09-13T07:43:44;18.00;99.90
12604;DHT22;6367;52.508;13.284;2022-09-13T07:46:12;18.10;99.90
12604;DHT22;6367;52.508;13.284;2022-09-13T07:48:40;18.00;99.90
12604;DHT22;6367;52.508;13.284;2022-09-13T07:53:36;18.10;99.90
12604;DHT22;6367;52.508;13.284;2022-09-13T07:56:10;18.40;99.90
12604;DHT22;6367;52.508;13.284;2022-09-13T07:58:38;18.30;99.90
12604;DHT22;6367;52.508;13.284;2022-09-13T08:01:15;18.30;99.90
12604;DHT22;6367;52.508;13.284;2022-09-13T08:03:41;18.40;99.90
12604;DHT22;6367;52.508;13.284;2022-09-13T08:06:08;18.40;99.90
12604;DHT22;6367;52.508;13.284;2022-09-13T08:08:34;18.60;99.90
12604;DHT22;6367;52.508;13.284;2022-09-13T08:11:03;18.50;99.90
12604;DHT22;6367;52.508;13.284;2022-09-13T08:13:29;18.60;99.90
12604;DHT22;6367;52.508;13.284;2022-09-13T08:16:00;18.60;99.90
12604;DHT22;6367;52.508;13.284;2022-09-13T08:18:25;18.70;99.90
12604;DHT22;6367;52.508;13.284;2022-09-13T08:20:58;18.80;99.90
12604;DHT22;6367;52.508;13.284;2022-09-13T08:23:24;18.70;99.90
12604;DHT22;6367;52.508;13.284;2022-09-13T08:25:50;18.80;99.90
12604;DHT22;6367;52.508;13.284;2022-09-13T08:28:17;18.80;99.90
12604;DHT22;6367;52.508;13.284;2022-09-13T08:30:43;18.90;99.90
12604;DHT22;6367;52.508;13.284;2022-09-13T08:33:12;18.90;99.90
12604;DHT22;6367;52.508;13.284;2022-09-13T08:35:37;18.90;99.90
12604;DHT22;6367;52.508;13.284;2022-09-13T08:38:05;19.60;99.90
12604;DHT22;6367;52.508;13.284;2022-09-13T08:40:48;19.40;99.90
12604;DHT22;6367;52.508;13.284;2022-09-13T08:43:26;19.80;99.90
12604;DHT22;6367;52.508;13.284;2022-09-13T08:46:27;19.20;99.90
12604;DHT22;6367;52.508;13.284;2022-09-13T08:48:55;19.90;99.90
12604;DHT22;6367;52.508;13.284;2022-09-13T08:51:27;19.60;99.90
12604;DHT22;6367;52.508;13.284;2022-09-13T08:53:56;19.70;99.90
12604;DHT22;6367;52.508;13.284;2022-09-13T08:56:35;19.70;99.90
12604;DHT22;6367;52.508;13.284;2022-09-13T09:10:01;20.30;99.90
12604;DHT22;6367;52.508;13.284;2022-09-13T09:12:53;20.40;99.90
12604;DHT22;6367;52.508;13.284;2022-09-13T09:15:23;20.40;99.90
12604;DHT22;6367;52.508;13.284;2022-09-13T09:20:35;20.60;99.90
12604;DHT22;6367;52.508;13.284;2022-09-13T09:23:11;20.50;99.90
12604;DHT22;6367;52.508;13.284;2022-09-13T09:25:37;20.70;99.90
12604;DHT22;6367;52.508;13.284;2022-09-13T09:28:14;20.90;99.90
12604;DHT22;6367;52.508;13.284;2022-09-13T09:31:01;21.10;99.90
12604;DHT22;6367;52.508;13.284;2022-09-13T09:38:41;21.50;99.90
12604;DHT22;6367;52.508;13.284;2022-09-13T09:41:27;21.90;99.90
12604;DHT22;6367;52.508;13.284;2022-09-13T09:43:55;21.70;99.90
12604;DHT22;6367;52.508;13.284;2022-09-13T09:46:27;21.20;99.90
12604;DHT22;6367;52.508;13.284;2022-09-13T09:49:17;21.90;99.90
12604;DHT22;6367;52.508;13.284;2022-09-13T09:52:05;22.00;99.90
12604;DHT22;6367;52.508;13.284;2022-09-13T09:54:33;22.00;99.90
12604;DHT22;6367;52.508;13.284;2022-09-13T09:56:59;22.30;99.90
12604;DHT22;6367;52.508;13.284;2022-09-13T09:59:30;22.10;99.90
12604;DHT22;6367;52.508;13.284;2022-09-13T10:01:58;22.20;99.90
12604;DHT22;6367;52.508;13.284;2022-09-13T10:04:24;22.30;99.90
12604;DHT22;6367;52.508;13.284;2022-09-13T10:07:23;22.30;99.90
12604;DHT22;6367;52.508;13.284;2022-09-13T10:10:42;22.40;99.90
12604;DHT22;6367;52.508;13.284;2022-09-13T10:12:42;22.60;99.90
12604;DHT22;6367;52.508;13.284;2022-09-13T10:15:19;22.70;99.90
12604;DHT22;6367;52.508;13.284;2022-09-13T10:18:11;22.90;99.90
12604;DHT22;6367;52.508;13.284;2022-09-13T10:20:38;22.90;99.90
12604;DHT22;6367;52.508;13.284;2022-09-13T10:25:40;23.00;99.90
12604;DHT22;6367;52.508;13.284;2022-09-13T10:28:12;23.00;99.90
12604;DHT22;6367;52.508;13.284;2022-09-13T10:31:06;23.00;99.90
12604;DHT22;6367;52.508;13.284;2022-09-13T10:33:41;23.00;99.90
12604;DHT22;6367;52.508;13.284;2022-09-13T10:36:17;22.90;99.90
12604;DHT22;6367;52.508;13.284;2022-09-13T10:39:03;22.90;99.90
12604;DHT22;6367;52.508;13.284;2022-09-13T10:41:32;22.80;99.90
12604;DHT22;6367;52.508;13.284;2022-09-13T10:44:01;22.80;99.90
12604;DHT22;6367;52.508;13.284;2022-09-13T10:46:35;22.80;99.90
12604;DHT22;6367;52.508;13.284;2022-09-13T10:49:03;22.70;99.90
12604;DHT22;6367;52.508;13.284;2022-09-13T10:51:35;22.70;99.90
12604;DHT22;6367;52.508;13.284;2022-09-13T10:54:11;22.70;99.90
12604;DHT22;6367;52.508;13.284;2022-09-13T10:56:39;22.80;99.90
12604;DHT22;6367;52.508;13.284;2022-09-13T11:05:31;22.80;99.90
12604;DHT22;6367;52.508;13.284;2022-09-13T11:13:19;22.60;99.90
12604;DHT22;6367;52.508;13.284;2022-09-13T11:32:48;22.50;99.90
12604;DHT22;6367;52.508;13.284;2022-09-13T11:35:20;22.40;99.90
12604;DHT22;6367;52.508;13.284;2022-09-13T11:40:51;22.70;99.90
12604;DHT22;6367;52.508;13.284;2022-09-13T11:43:49;22.30;99.90
12604;DHT22;6367;52.508;13.284;2022-09-13T11:49:09;22.40;99.90
12604;DHT22;6367;52.508;13.284;2022-09-13T11:57:33;22.30;99.90
12604;DHT22;6367;52.508;13.284;2022-09-13T12:00:05;22.20;99.90
12604;DHT22;6367;52.508;13.284;2022-09-13T12:02:38;22.20;99.90
12604;DHT22;6367;52.508;13.284;2022-09-13T12:07:44;22.30;99.90
12604;DHT22;6367;52.508;13.284;2022-09-13T12:13:24;22.20;99.90
12604;DHT22;6367;52.508;13.284;2022-09-13T12:16:03;22.20;99.90
12604;DHT22;6367;52.508;13.284;2022-09-13T12:21:40;22.20;99.90
12604;DHT22;6367;52.508;13.284;2022-09-13T12:27:08;22.10;99.90
12604;DHT22;6367;52.508;13.284;2022-09-13T12:29:40;22.10;99.90
12604;DHT22;6367;52.508;13.284;2022-09-13T12:32:09;22.00;99.90
12604;DHT22;6367;52.508;13.284;2022-09-13T12:34:43;21.90;99.90
12604;DHT22;6367;52.508;13.284;2022-09-13T12:46:25;21.90;99.90
12604;DHT22;6367;52.508;13.284;2022-09-13T12:54:51;22.00;99.90
12604;DHT22;6367;52.508;13.284;2022-09-13T13:00:33;22.10;99.90
12604;DHT22;6367;52.508;13.284;2022-09-13T13:05:46;22.10;99.90
12604;DHT22;6367;52.508;13.284;2022-09-13T13:11:00;22.20;99.90
12604;DHT22;6367;52.508;13.284;2022-09-13T13:13:43;22.20;99.90
12604;DHT22;6367;52.508;13.284;2022-09-13T13:16:30;22.20;99.90
12604;DHT22;6367;52.508;13.284;2022-09-13T13:19:02;22.20;99.90
12604;DHT22;6367;52.508;13.284;2022-09-13T13:21:37;22.20;99.90
12604;DHT22;6367;52.508;13.284;2022-09-13T13:57:49;22.40;99.90
12604;DHT22;6367;52.508;13.284;2022-09-13T14:00:19;22.40;99.90
12604;DHT22;6367;52.508;13.284;2022-09-13T14:19:52;22.80;99.90
12604;DHT22;6367;52.508;13.284;2022-09-13T14:22:25;22.70;99.90
12604;DHT22;6367;52.508;13.284;2022-09-13T14:24:56;22.80;99.90
12604;DHT22;6367;52.508;13.284;2022-09-13T14:27:22;22.80;99.90
12604;DHT22;6367;52.508;13.284;2022-09-13T14:29:57;22.80;99.90
12604;DHT22;6367;52.508;13.284;2022-09-13T14:32:26;22.90;99.90
12604;DHT22;6367;52.508;13.284;2022-09-13T14:35:02;22.90;99.90
12604;DHT22;6367;52.508;13.284;2022-09-13T14:37:32;23.20;99.90
12604;DHT22;6367;52.508;13.284;2022-09-13T14:40:00;22.90;99.90
12604;DHT22;6367;52.508;13.284;2022-09-13T14:42:38;22.80;99.90
12604;DHT22;6367;52.508;13.284;2022-09-13T14:45:04;22.80;99.90
12604;DHT22;6367;52.508;13.284;2022-09-13T14:47:34;22.80;99.90
12604;DHT22;6367;52.508;13.284;2022-09-13T14:50:28;22.80;99.90
12604;DHT22;6367;52.508;13.284;2022-09-13T14:53:12;22.80;99.90
12604;DHT22;6367;52.508;13.284;2022-09-13T14:55:44;22.80;99.90
12604;DHT22;6367;52.508;13.284;2022-09-13T14:58:21;22.80;99.90
12604;DHT22;6367;52.508;13.284;2022-09-13T15:01:01;22.80;99.90
12604;DHT22;6367;52.508;13.284;2022-09-13T15:03:27;22.80;99.90
12604;DHT22;6367;52.508;13.284;2022-09-13T15:05:56;22.90;99.90
12604;DHT22;6367;52.508;13.284;2022-09-13T15:11:05;22.80;99.90
12604;DHT22;6367;52.508;13.284;2022-09-13T15:13:39;22.90;99.90
12604;DHT22;6367;52.508;13.284;2022-09-13T15:16:31;22.90;99.90
12604;DHT22;6367;52.508;13.284;2022-09-13T15:19:26;22.90;99.90
12604;DHT22;6367;52.508;13.284;2022-09-13T15:21:53;22.90;99.90
12604;DHT22;6367;52.508;13.284;2022-09-13T15:24:29;22.90;99.90
12604;DHT22;6367;52.508;13.284;2022-09-13T15:27:05;22.90;99.90
12604;DHT22;6367;52.508;13.284;2022-09-13T15:29:30;22.90;99.90
12604;DHT22;6367;52.508;13.284;2022-09-13T15:32:00;22.90;99.90
12604;DHT22;6367;52.508;13.284;2022-09-13T15:34:27;22.90;99.90
12604;DHT22;6367;52.508;13.284;2022-09-13T15:39:53;22.70;99.90
12604;DHT22;6367;52.508;13.284;2022-09-13T15:42:26;22.70;99.90
12604;DHT22;6367;52.508;13.284;2022-09-13T15:44:51;22.70;99.90
12604;DHT22;6367;52.508;13.284;2022-09-13T15:47:17;22.70;99.90
12604;DHT22;6367;52.508;13.284;2022-09-13T15:49:50;22.70;99.90
12604;DHT22;6367;52.508;13.284;2022-09-13T15:52:17;22.70;99.90
12604;DHT22;6367;52.508;13.284;2022-09-13T15:54:46;22.70;99.90
12604;DHT22;6367;52.508;13.284;2022-09-13T15:57:27;22.70;99.90
12604;DHT22;6367;52.508;13.284;2022-09-13T15:59:54;22.70;99.90
12604;DHT22;6367;52.508;13.284;2022-09-13T16:02:24;22.70;99.90
12604;DHT22;6367;52.508;13.284;2022-09-13T16:04:51;22.70;99.90
12604;DHT22;6367;52.508;13.284;2022-09-13T16:07:17;22.70;99.90
12604;DHT22;6367;52.508;13.284;2022-09-13T16:09:43;22.80;99.90
12604;DHT22;6367;52.508;13.284;2022-09-13T16:12:09;22.70;99.90
12604;DHT22;6367;52.508;13.284;2022-09-13T16:14:35;22.70;99.90
12604;DHT22;6367;52.508;13.284;2022-09-13T16:17:10;22.70;99.90
12604;DHT22;6367;52.508;13.284;2022-09-13T16:19:36;22.60;99.90
12604;DHT22;6367;52.508;13.284;2022-09-13T16:22:01;22.70;99.90
12604;DHT22;6367;52.508;13.284;2022-09-13T16:24:27;22.60;99.90
12604;DHT22;6367;52.508;13.284;2022-09-13T16:26:53;22.60;99.90
12604;DHT22;6367;52.508;13.284;2022-09-13T16:29:18;22.50;99.90
12604;DHT22;6367;52.508;13.284;2022-09-13T16:31:44;22.50;99.90
12604;DHT22;6367;52.508;13.284;2022-09-13T16:34:09;22.50;99.90
12604;DHT22;6367;52.508;13.284;2022-09-13T16:36:35;22.50;99.90
12604;DHT22;6367;52.508;13.284;2022-09-13T16:39:01;22.70;99.90
12604;DHT22;6367;52.508;13.284;2022-09-13T16:41:27;22.40;99.90
12604;DHT22;6367;52.508;13.284;2022-09-13T16:43:56;22.40;99.90
12604;DHT22;6367;52.508;13.284;2022-09-13T16:46:21;22.40;99.90
12604;DHT22;6367;52.508;13.284;2022-09-13T16:48:54;22.60;99.90
12604;DHT22;6367;52.508;13.284;2022-09-13T16:51:20;22.40;99.90
12604;DHT22;6367;52.508;13.284;2022-09-13T16:53:48;22.40;99.90
12604;DHT22;6367;52.508;13.284;2022-09-13T16:56:16;22.40;99.90
12604;DHT22;6367;52.508;13.284;2022-09-13T16:58:44;22.40;99.90
12604;DHT22;6367;52.508;13.284;2022-09-13T17:01:24;22.30;99.90
12604;DHT22;6367;52.508;13.284;2022-09-13T17:03:51;22.40;99.90
12604;DHT22;6367;52.508;13.284;2022-09-13T17:06:18;22.30;99.90
12604;DHT22;6367;52.508;13.284;2022-09-13T17:08:59;22.30;99.90
12604;DHT22;6367;52.508;13.284;2022-09-13T17:11:27;22.30;99.90
12604;DHT22;6367;52.508;13.284;2022-09-13T17:13:53;22.30;99.90
12604;DHT22;6367;52.508;13.284;2022-09-13T17:16:38;22.30;99.90
12604;DHT22;6367;52.508;13.284;2022-09-13T17:19:07;22.20;99.90
12604;DHT22;6367;52.508;13.284;2022-09-13T17:21:33;22.20;99.90
12604;DHT22;6367;52.508;13.284;2022-09-13T17:23:59;22.20;99.90
12604;DHT22;6367;52.508;13.284;2022-09-13T17:26:25;22.20;99.90
12604;DHT22;6367;52.508;13.284;2022-09-13T17:28:51;22.20;99.90
12604;DHT22;6367;52.508;13.284;2022-09-13T17:31:17;22.10;99.90
12604;DHT22;6367;52.508;13.284;2022-09-13T17:33:43;22.10;99.90
12604;DHT22;6367;52.508;13.284;2022-09-13T17:36:10;22.10;99.90
12604;DHT22;6367;52.508;13.284;2022-09-13T17:38:38;22.10;99.90
12604;DHT22;6367;52.508;13.284;2022-09-13T17:41:18;22.40;99.90
12604;DHT22;6367;52.508;13.284;2022-09-13T17:43:44;22.00;99.90
12604;DHT22;6367;52.508;13.284;2022-09-13T17:46:12;22.10;99.90
12604;DHT22;6367;52.508;13.284;2022-09-13T17:48:38;22.50;99.90
12604;DHT22;6367;52.508;13.284;2022-09-13T17:51:12;21.80;99.90
12604;DHT22;6367;52.508;13.284;2022-09-13T17:53:39;21.90;99.90
12604;DHT22;6367;52.508;13.284;2022-09-13T17:56:06;22.20;99.90
12604;DHT22;6367;52.508;13.284;2022-09-13T17:58:32;21.70;99.90
12604;DHT22;6367;52.508;13.284;2022-09-13T18:01:07;21.70;99.90
12604;DHT22;6367;52.508;13.284;2022-09-13T18:03:34;21.70;99.90
12604;DHT22;6367;52.508;13.284;2022-09-13T18:06:02;21.70;99.90
12604;DHT22;6367;52.508;13.284;2022-09-13T18:08:30;21.70;99.90
12604;DHT22;6367;52.508;13.284;2022-09-13T18:11:04;21.80;99.90
12604;DHT22;6367;52.508;13.284;2022-09-13T18:13:30;21.70;99.90
12604;DHT22;6367;52.508;13.284;2022-09-13T18:16:02;21.70;99.90
12604;DHT22;6367;52.508;13.284;2022-09-13T18:18:29;21.70;99.90
12604;DHT22;6367;52.508;13.284;2022-09-13T18:20:56;21.70;99.90
12604;DHT22;6367;52.508;13.284;2022-09-13T18:23:22;21.60;99.90
12604;DHT22;6367;52.508;13.284;2022-09-13T18:25:59;21.70;99.90
12604;DHT22;6367;52.508;13.284;2022-09-13T18:28:25;21.60;99.90
12604;DHT22;6367;52.508;13.284;2022-09-13T18:30:53;21.50;99.90
12604;DHT22;6367;52.508;13.284;2022-09-13T18:33:19;21.60;99.90
12604;DHT22;6367;52.508;13.284;2022-09-13T18:36:04;21.50;99.90
12604;DHT22;6367;52.508;13.284;2022-09-13T18:38:49;21.50;99.90
12604;DHT22;6367;52.508;13.284;2022-09-13T18:41:26;21.50;99.90
12604;DHT22;6367;52.508;13.284;2022-09-13T18:43:53;21.50;99.90
12604;DHT22;6367;52.508;13.284;2022-09-13T18:46:25;21.50;99.90
12604;DHT22;6367;52.508;13.284;2022-09-13T18:48:52;21.50;99.90
12604;DHT22;6367;52.508;13.284;2022-09-13T18:51:20;21.50;99.90
12604;DHT22;6367;52.508;13.284;2022-09-13T18:53:47;21.40;99.90
12604;DHT22;6367;52.508;13.284;2022-09-13T18:56:15;21.50;99.90
12604;DHT22;6367;52.508;13.284;2022-09-13T18:58:42;21.60;99.90
12604;DHT22;6367;52.508;13.284;2022-09-13T19:01:17;21.40;99.90
12604;DHT22;6367;52.508;13.284;2022-09-13T19:06:21;21.30;99.90
12604;DHT22;6367;52.508;13.284;2022-09-13T19:08:48;21.80;99.90
12604;DHT22;6367;52.508;13.284;2022-09-13T19:11:16;21.20;99.90
12604;DHT22;6367;52.508;13.284;2022-09-13T19:13:42;21.30;99.90
12604;DHT22;6367;52.508;13.284;2022-09-13T19:16:13;21.20;99.90